createdAt,value
2022-09-02T00:00:34.502Z,97736.88
2022-09-02T00:03:01.155Z,97737.81
2022-09-02T00:05:29.130Z,97740.75
2022-09-02T00:07:55.675Z,97743.16
2022-09-02T00:10:22.341Z,97737.94
2022-09-02T00:12:48.987Z,97732.66
2022-09-02T00:15:15.607Z,97737.25
2022-09-02T00:17:42.144Z,97731.66
2022-09-02T00:20:09.992Z,97733.41
2022-09-02T00:22:36.539Z,97729.09
2022-09-02T00:25:03.114Z,97739.22
2022-09-02T00:27:29.622Z,97725.41
2022-09-02T00:29:56.113Z,97728.47
2022-09-02T00:32:22.670Z,97724.56
2022-09-02T00:34:49.478Z,97723.06
2022-09-02T00:37:16.034Z,97709.38
2022-09-02T00:39:42.733Z,97709.63
2022-09-02T00:42:09.671Z,97714.84
2022-09-02T00:44:36.142Z,97715.00
2022-09-02T00:47:02.710Z,97709.50
2022-09-02T00:49:30.349Z,97700.84
2022-09-02T00:52:17.979Z,97710.44
2022-09-02T00:54:56.527Z,97703.69
2022-09-02T00:57:25.089Z,97705.03
2022-09-02T00:59:57.775Z,97703.06
2022-09-02T01:02:26.067Z,97699.03
2022-09-02T01:04:56.785Z,97698.19
2022-09-02T01:07:24.413Z,97703.91
2022-09-02T01:09:51.422Z,97707.41
2022-09-02T01:12:18.293Z,97699.09
2022-09-02T01:14:44.786Z,97702.75
2022-09-02T01:17:11.305Z,97706.50
2022-09-02T01:19:43.545Z,97701.66
2022-09-02T01:22:22.550Z,97698.84
2022-09-02T01:24:49.843Z,97708.78
2022-09-02T01:27:19.054Z,97707.09
2022-09-02T01:29:45.721Z,97713.66
2022-09-02T01:32:12.238Z,97703.19
2022-09-02T01:34:38.722Z,97705.13
2022-09-02T01:37:05.317Z,97710.84
2022-09-02T01:39:31.785Z,97705.91
2022-09-02T01:41:58.517Z,97701.75
2022-09-02T01:44:27.571Z,97699.78
2022-09-02T01:46:54.219Z,97702.31
2022-09-02T01:49:21.856Z,97698.75
2022-09-02T01:51:48.564Z,97699.59
2022-09-02T01:54:15.914Z,97699.97
2022-09-02T01:56:42.550Z,97696.06
2022-09-02T01:59:11.506Z,97708.22
2022-09-02T02:01:38.052Z,97700.53
2022-09-02T02:04:04.809Z,97704.47
2022-09-02T02:06:32.035Z,97695.47
2022-09-02T02:08:59.306Z,97696.97
2022-09-02T02:11:27.145Z,97707.91
2022-09-02T02:13:57.875Z,97702.97
2022-09-02T02:16:24.475Z,97694.81
2022-09-02T02:18:51.102Z,97682.53
2022-09-02T02:21:17.677Z,97684.69
2022-09-02T02:23:46.966Z,97683.09
2022-09-02T02:26:13.506Z,97680.38
2022-09-02T02:28:40.051Z,97685.63
2022-09-02T02:31:06.933Z,97691.53
2022-09-02T02:33:36.256Z,97680.94
2022-09-02T02:36:05.574Z,97682.91
2022-09-02T02:38:33.282Z,97678.84
2022-09-02T02:41:01.951Z,97681.69
2022-09-02T02:43:29.065Z,97686.63
2022-09-02T02:45:55.750Z,97690.41
2022-09-02T02:48:22.603Z,97694.16
2022-09-02T02:50:49.120Z,97684.78
2022-09-02T02:53:17.490Z,97681.03
2022-09-02T02:55:44.349Z,97670.06
2022-09-02T02:58:17.026Z,97669.81
2022-09-02T03:00:46.211Z,97668.78
2022-09-02T03:03:14.105Z,97666.69
2022-09-02T03:05:40.810Z,97661.25
2022-09-02T03:08:08.828Z,97664.13
2022-09-02T03:10:35.466Z,97657.75
2022-09-02T03:13:02.518Z,97664.38
2022-09-02T03:15:30.714Z,97661.22
2022-09-02T03:17:57.738Z,97674.69
2022-09-02T03:20:24.655Z,97663.31
2022-09-02T03:22:56.595Z,97667.03
2022-09-02T03:25:23.738Z,97662.38
2022-09-02T03:27:54.471Z,97667.81
2022-09-02T03:30:25.187Z,97659.88
2022-09-02T03:32:52.406Z,97657.06
2022-09-02T03:35:20.447Z,97662.84
2022-09-02T03:37:47.781Z,97655.28
2022-09-02T03:40:17.271Z,97656.28
2022-09-02T03:42:47.130Z,97656.25
2022-09-02T03:45:15.980Z,97658.63
2022-09-02T03:47:51.338Z,97656.16
2022-09-02T03:50:21.550Z,97659.63
2022-09-02T03:52:48.437Z,97665.22
2022-09-02T03:55:16.228Z,97657.13
2022-09-02T03:57:42.790Z,97659.88
2022-09-02T04:00:10.255Z,97660.75
2022-09-02T04:02:41.884Z,97662.63
2022-09-02T04:05:15.867Z,97664.44
2022-09-02T04:07:44.437Z,97659.84
2022-09-02T04:10:14.075Z,97658.09
2022-09-02T04:12:40.930Z,97663.25
2022-09-02T04:15:10.107Z,97669.78
2022-09-02T04:17:37.511Z,97668.47
2022-09-02T04:20:05.049Z,97667.78
2022-09-02T04:22:33.313Z,97671.06
2022-09-02T04:25:00.140Z,97675.28
2022-09-02T04:27:27.195Z,97661.03
2022-09-02T04:29:56.304Z,97673.41
2022-09-02T04:32:23.698Z,97666.31
2022-09-02T04:34:50.987Z,97671.00
2022-09-02T04:37:18.988Z,97668.84
2022-09-02T04:39:46.519Z,97674.44
2022-09-02T04:42:13.283Z,97672.81
2022-09-02T04:44:40.364Z,97674.59
2022-09-02T04:47:08.009Z,97676.69
2022-09-02T04:49:35.058Z,97673.06
2022-09-02T04:52:01.621Z,97676.06
2022-09-02T04:54:29.053Z,97676.91
2022-09-02T04:56:59.007Z,97673.19
2022-09-02T04:59:27.093Z,97673.25
2022-09-02T05:02:05.302Z,97683.56
2022-09-02T05:04:32.522Z,97680.03
2022-09-02T05:07:03.256Z,97679.19
2022-09-02T05:09:33.149Z,97678.81
2022-09-02T05:12:04.293Z,97682.22
2022-09-02T05:14:51.203Z,97688.63
2022-09-02T05:17:19.994Z,97687.88
2022-09-02T05:19:48.015Z,97682.19
2022-09-02T05:22:15.785Z,97683.25
2022-09-02T05:24:43.294Z,97681.72
2022-09-02T05:27:13.277Z,97684.16
2022-09-02T05:29:42.915Z,97694.28
2022-09-02T05:32:12.061Z,97693.53
2022-09-02T05:34:39.838Z,97694.56
2022-09-02T05:37:06.394Z,97689.06
2022-09-02T05:39:34.745Z,97690.84
2022-09-02T05:42:01.596Z,97686.41
2022-09-02T05:44:30.550Z,97684.59
2022-09-02T05:46:58.908Z,97681.97
2022-09-02T05:49:27.595Z,97681.88
2022-09-02T05:52:04.374Z,97678.97
2022-09-02T05:54:39.998Z,97684.88
2022-09-02T05:57:13.720Z,97685.94
2022-09-02T05:59:49.090Z,97679.72
2022-09-02T06:02:19.295Z,97678.53
2022-09-02T06:04:47.059Z,97675.44
2022-09-02T06:07:14.902Z,97679.81
2022-09-02T06:09:44.966Z,97689.69
2022-09-02T06:12:13.145Z,97680.09
2022-09-02T06:14:40.738Z,97679.00
2022-09-02T06:17:07.848Z,97685.63
2022-09-02T06:19:40.691Z,97686.72
2022-09-02T06:22:07.890Z,97685.09
2022-09-02T06:24:38.456Z,97680.25
2022-09-02T06:27:09.517Z,97678.19
2022-09-02T06:29:38.994Z,97677.31
2022-09-02T06:32:07.302Z,97676.19
2022-09-02T06:34:35.257Z,97689.09
2022-09-02T06:37:02.877Z,97684.03
2022-09-02T06:39:31.502Z,97694.41
2022-09-02T06:41:59.119Z,97694.47
2022-09-02T06:44:29.394Z,97690.75
2022-09-02T06:46:59.726Z,97686.81
2022-09-02T06:49:28.430Z,97688.22
2022-09-02T06:51:56.837Z,97692.69
2022-09-02T06:54:28.854Z,97690.66
2022-09-02T06:57:05.598Z,97692.44
2022-09-02T06:59:33.372Z,97685.47
2022-09-02T07:02:00.714Z,97690.34
2022-09-02T07:04:46.925Z,97694.47
2022-09-02T07:07:17.693Z,97688.16
2022-09-02T07:10:00.160Z,97701.44
2022-09-02T07:12:27.362Z,97696.41
2022-09-02T07:15:01.980Z,97700.03
2022-09-02T07:17:35.822Z,97701.44
2022-09-02T07:20:05.650Z,97693.38
2022-09-02T07:22:39.014Z,97689.00
2022-09-02T07:25:08.289Z,97685.19
2022-09-02T07:27:35.759Z,97691.25
2022-09-02T07:30:04.634Z,97698.59
2022-09-02T07:32:31.476Z,97691.41
2022-09-02T07:34:58.120Z,97682.56
2022-09-02T07:37:25.150Z,97686.75
2022-09-02T07:39:53.623Z,97679.97
2022-09-02T07:42:20.439Z,97686.00
2022-09-02T07:44:47.723Z,97683.34
2022-09-02T07:47:14.675Z,97686.72
2022-09-02T07:52:31.301Z,97693.69
2022-09-02T07:54:58.206Z,97689.34
2022-09-02T07:57:25.666Z,97690.22
2022-09-02T07:59:52.307Z,97690.69
2022-09-02T08:02:19.338Z,97680.72
2022-09-02T08:04:46.577Z,97690.09
2022-09-02T08:07:14.850Z,97687.28
2022-09-02T08:09:41.431Z,97682.81
2022-09-02T08:12:07.983Z,97689.59
2022-09-02T08:14:34.555Z,97678.03
2022-09-02T08:17:01.201Z,97680.06
2022-09-02T08:19:27.811Z,97685.88
2022-09-02T08:21:55.255Z,97686.09
2022-09-02T08:24:21.917Z,97675.50
2022-09-02T08:26:48.479Z,97681.94
2022-09-02T08:29:15.513Z,97679.13
2022-09-02T08:31:42.019Z,97670.31
2022-09-02T08:34:08.554Z,97674.38
2022-09-02T08:36:35.017Z,97682.91
2022-09-02T08:39:02.619Z,97676.00
2022-09-02T08:41:49.665Z,97678.25
2022-09-02T08:44:21.590Z,97673.13
2022-09-02T08:46:50.474Z,97673.56
2022-09-02T08:49:26.159Z,97665.47
2022-09-02T08:51:56.497Z,97667.66
2022-09-02T08:54:30.462Z,97665.78
2022-09-02T08:56:58.067Z,97669.19
2022-09-02T08:59:27.350Z,97670.09
2022-09-02T09:02:01.283Z,97660.34
2022-09-02T09:04:44.529Z,97662.84
2022-09-02T09:07:31.156Z,97662.72
2022-09-02T09:10:15.153Z,97660.53
2022-09-02T09:13:04.265Z,97666.31
2022-09-02T09:15:33.834Z,97659.75
2022-09-02T09:18:05.434Z,97664.75
2022-09-02T09:20:33.467Z,97663.94
2022-09-02T09:23:01.754Z,97649.44
2022-09-02T09:25:31.958Z,97653.69
2022-09-02T09:27:59.167Z,97655.63
2022-09-02T09:30:26.157Z,97647.81
2022-09-02T09:32:57.387Z,97642.09
2022-09-02T09:35:24.559Z,97633.56
2022-09-02T09:37:52.429Z,97646.78
2022-09-02T09:40:18.943Z,97642.00
2022-09-02T09:42:49.755Z,97636.06
2022-09-02T09:45:21.929Z,97638.28
2022-09-02T09:48:07.630Z,97634.75
2022-09-02T09:50:34.251Z,97645.28
2022-09-02T09:53:20.884Z,97637.53
2022-09-02T09:56:01.509Z,97633.00
2022-09-02T09:58:40.596Z,97636.00
2022-09-02T10:01:15.575Z,97628.97
2022-09-02T10:03:47.959Z,97631.56
2022-09-02T10:06:19.102Z,97633.16
2022-09-02T10:08:56.306Z,97623.50
2022-09-02T10:11:26.740Z,97620.47
2022-09-02T10:14:00.965Z,97617.31
2022-09-02T10:16:30.719Z,97620.00
2022-09-02T10:19:20.251Z,97615.66
2022-09-02T10:21:46.698Z,97625.34
2022-09-02T10:24:32.021Z,97625.28
2022-09-02T10:27:00.374Z,97611.25
2022-09-02T10:29:26.905Z,97613.75
2022-09-02T10:32:19.681Z,97613.47
2022-09-02T10:34:54.250Z,97610.31
2022-09-02T10:37:21.586Z,97606.75
2022-09-02T10:40:03.847Z,97611.13
2022-09-02T10:42:33.218Z,97608.22
2022-09-02T10:45:02.783Z,97602.75
2022-09-02T10:47:41.295Z,97598.78
2022-09-02T10:50:07.851Z,97598.13
2022-09-02T10:52:38.551Z,97599.06
2022-09-02T10:55:19.289Z,97593.69
2022-09-02T10:57:49.702Z,97584.28
2022-09-02T11:00:18.628Z,97591.13
2022-09-02T11:02:51.818Z,97589.34
2022-09-02T11:05:21.423Z,97580.66
2022-09-02T11:08:08.009Z,97579.22
2022-09-02T11:10:37.310Z,97577.94
2022-09-02T11:13:10.061Z,97576.00
2022-09-02T11:15:48.955Z,97561.34
2022-09-02T11:18:35.551Z,97564.75
2022-09-02T11:21:02.395Z,97563.72
2022-09-02T11:23:38.883Z,97569.41
2022-09-02T11:26:11.522Z,97557.25
2022-09-02T11:28:52.570Z,97559.50
2022-09-02T11:31:27.506Z,97560.97
2022-09-02T11:33:58.363Z,97562.63
2022-09-02T11:36:26.407Z,97564.84
2022-09-02T11:38:59.030Z,97560.00
2022-09-02T11:41:36.483Z,97550.56
2022-09-02T11:44:17.362Z,97546.19
2022-09-02T11:46:46.872Z,97552.09
2022-09-02T11:49:32.760Z,97543.53
2022-09-02T11:52:17.699Z,97550.66
2022-09-02T11:54:47.572Z,97550.22
2022-09-02T11:57:20.820Z,97548.75
2022-09-02T11:59:50.678Z,97543.22
2022-09-02T12:02:35.888Z,97542.31
2022-09-02T12:05:21.356Z,97544.53
2022-09-02T12:07:49.193Z,97542.72
2022-09-02T12:10:35.068Z,97534.25
2022-09-02T12:13:03.118Z,97535.22
2022-09-02T12:15:29.665Z,97530.97
2022-09-02T12:17:56.484Z,97529.19
2022-09-02T12:20:51.133Z,97515.69
2022-09-02T12:23:36.753Z,97509.34
2022-09-02T12:26:06.962Z,97507.91
2022-09-02T12:28:33.856Z,97514.22
2022-09-02T12:31:08.226Z,97512.28
2022-09-02T12:33:36.610Z,97508.50
2022-09-02T12:36:05.019Z,97516.84
2022-09-02T12:38:31.689Z,97515.06
2022-09-02T12:41:13.376Z,97511.88
2022-09-02T12:43:44.574Z,97509.19
2022-09-02T12:46:21.438Z,97515.19
2022-09-02T12:48:52.207Z,97515.16
2022-09-02T12:51:37.297Z,97504.69
2022-09-02T12:54:05.581Z,97495.50
2022-09-02T12:56:32.092Z,97495.94
2022-09-02T12:59:02.446Z,97492.34
2022-09-02T13:01:41.368Z,97500.78
2022-09-02T13:04:17.658Z,97502.47
2022-09-02T13:06:45.192Z,97493.91
2022-09-02T13:09:34.409Z,97496.81
2022-09-02T13:12:17.194Z,97482.31
2022-09-02T13:15:06.942Z,97491.34
2022-09-02T13:17:48.854Z,97493.09
2022-09-02T13:20:20.036Z,97482.19
2022-09-02T13:23:05.355Z,97487.41
2022-09-02T13:25:32.800Z,97482.00
2022-09-02T13:27:59.312Z,97482.16
2022-09-02T13:30:32.031Z,97477.94
2022-09-02T13:33:11.954Z,97492.66
2022-09-02T13:35:39.773Z,97475.84
2022-09-02T13:40:43.926Z,97477.72
2022-09-02T13:43:12.396Z,97476.16
2022-09-02T13:45:38.909Z,97479.38
2022-09-02T13:48:10.736Z,97471.78
2022-09-02T13:50:47.352Z,97482.06
2022-09-02T13:56:25.051Z,97474.47
2022-09-02T13:58:52.498Z,97466.84
2022-09-02T14:01:20.863Z,97470.19
2022-09-02T14:03:50.224Z,97467.03
2022-09-02T14:06:19.179Z,97461.34
2022-09-02T14:08:46.363Z,97457.41
2022-09-02T14:11:17.104Z,97454.75
2022-09-02T14:13:46.483Z,97465.47
2022-09-02T14:16:34.606Z,97455.34
2022-09-02T14:19:07.165Z,97461.25
2022-09-02T14:21:34.349Z,97460.75
2022-09-02T14:24:01.419Z,97458.28
2022-09-02T14:26:34.023Z,97455.06
2022-09-02T14:29:00.689Z,97458.47
2022-09-02T14:31:30.757Z,97459.97
2022-09-02T14:33:57.870Z,97451.84
2022-09-02T14:36:24.325Z,97457.13
2022-09-02T14:38:52.624Z,97457.22
2022-09-02T14:41:26.680Z,97450.44
2022-09-02T14:43:55.333Z,97442.75
2022-09-02T14:46:42.084Z,97451.13
2022-09-02T14:49:10.219Z,97446.09
2022-09-02T14:51:43.762Z,97455.75
2022-09-02T14:54:11.225Z,97454.56
2022-09-02T14:56:49.143Z,97452.50
2022-09-02T14:59:15.660Z,97458.66
2022-09-02T15:01:52.979Z,97454.69
2022-09-02T15:04:19.773Z,97457.53
2022-09-02T15:06:46.872Z,97454.97
2022-09-02T15:09:17.194Z,97459.00
2022-09-02T15:11:53.246Z,97467.91
2022-09-02T15:14:19.786Z,97465.56
2022-09-02T15:16:46.324Z,97466.75
2022-09-02T15:19:12.814Z,97458.13
2022-09-02T15:21:40.354Z,97462.59
2022-09-02T15:24:06.939Z,97463.25
2022-09-02T15:26:33.594Z,97461.47
2022-09-02T15:29:00.166Z,97459.97
2022-09-02T15:31:26.722Z,97461.03
2022-09-02T15:33:53.375Z,97461.56
2022-09-02T15:36:21.256Z,97454.59
2022-09-02T15:38:47.763Z,97463.22
2022-09-02T15:41:15.598Z,97462.97
2022-09-02T15:43:42.631Z,97457.81
2022-09-02T15:46:16.895Z,97459.47
2022-09-02T15:48:43.398Z,97464.16
2022-09-02T15:51:13.814Z,97456.84
2022-09-02T15:53:40.350Z,97450.78
2022-09-02T15:56:27.617Z,97463.06
2022-09-02T15:58:57.866Z,97452.88
2022-09-02T16:01:29.082Z,97456.16
2022-09-02T16:03:56.901Z,97451.44
2022-09-02T16:06:23.516Z,97452.84
2022-09-02T16:08:50.249Z,97450.84
2022-09-02T16:11:17.356Z,97450.50
2022-09-02T16:13:43.913Z,97450.94
2022-09-02T16:16:11.307Z,97460.03
2022-09-02T16:18:38.383Z,97457.88
2022-09-02T16:21:08.688Z,97454.03
2022-09-02T16:23:35.606Z,97452.16
2022-09-02T16:26:11.305Z,97461.06
2022-09-02T16:28:38.714Z,97462.06
2022-09-02T16:31:06.479Z,97453.59
2022-09-02T16:33:35.126Z,97454.34
2022-09-02T16:36:02.321Z,97452.56
2022-09-02T16:38:28.907Z,97458.22
2022-09-02T16:40:57.066Z,97461.56
2022-09-02T16:43:24.706Z,97464.84
2022-09-02T16:45:52.947Z,97470.06
2022-09-02T16:48:25.100Z,97463.06
2022-09-02T16:50:52.357Z,97457.66
2022-09-02T16:53:19.134Z,97463.69
2022-09-02T16:55:46.907Z,97460.31
2022-09-02T16:58:14.259Z,97456.81
2022-09-02T17:00:41.490Z,97461.72
2022-09-02T17:03:09.890Z,97461.84
2022-09-02T17:05:36.461Z,97465.19
2022-09-02T17:08:03.356Z,97458.66
2022-09-02T17:10:30.650Z,97464.19
2022-09-02T17:12:57.657Z,97466.06
2022-09-02T17:15:24.833Z,97464.72
2022-09-02T17:17:51.649Z,97472.88
2022-09-02T17:20:18.446Z,97469.09
2022-09-02T17:22:45.054Z,97465.84
2022-09-02T17:25:11.615Z,97460.16
2022-09-02T17:27:38.643Z,97468.91
2022-09-02T17:30:06.025Z,97460.94
2022-09-02T17:32:32.598Z,97471.31
2022-09-02T17:34:59.118Z,97472.97
2022-09-02T17:37:26.690Z,97478.69
2022-09-02T17:39:53.412Z,97482.41
2022-09-02T17:42:21.480Z,97488.34
2022-09-02T17:44:48.661Z,97487.06
2022-09-02T17:47:16.379Z,97489.75
2022-09-02T17:49:44.247Z,97490.84
2022-09-02T17:52:12.771Z,97497.84
2022-09-02T17:54:39.932Z,97498.25
2022-09-02T17:57:23.403Z,97499.94
2022-09-02T18:00:10.247Z,97502.25
2022-09-02T18:02:37.531Z,97501.19
2022-09-02T18:05:14.095Z,97509.97
2022-09-02T18:07:40.609Z,97511.69
2022-09-02T18:10:07.339Z,97516.69
2022-09-02T18:12:36.463Z,97513.78
2022-09-02T18:15:04.782Z,97523.91
2022-09-02T18:17:38.992Z,97521.03
2022-09-02T18:20:11.577Z,97531.22
2022-09-02T18:22:46.698Z,97524.78
2022-09-02T18:25:24.010Z,97531.00
2022-09-02T18:28:05.462Z,97535.25
2022-09-02T18:30:50.270Z,97539.28
2022-09-02T18:33:20.182Z,97542.53
2022-09-02T18:35:55.637Z,97549.06
2022-09-02T18:38:29.088Z,97540.38
2022-09-02T18:41:04.743Z,97548.00
2022-09-02T18:43:50.074Z,97549.13
2022-09-02T18:46:17.986Z,97547.63
2022-09-02T18:48:46.732Z,97548.88
2022-09-02T18:51:36.021Z,97551.81
2022-09-02T18:54:09.021Z,97560.56
2022-09-02T18:56:36.654Z,97560.22
2022-09-02T18:59:07.911Z,97556.72
2022-09-02T19:01:39.550Z,97568.94
2022-09-02T19:04:06.102Z,97562.50
2022-09-02T19:06:36.165Z,97560.75
2022-09-02T19:09:12.534Z,97556.91
2022-09-02T19:11:39.766Z,97558.19
2022-09-02T19:14:26.491Z,97565.41
2022-09-02T19:16:53.947Z,97568.28
2022-09-02T19:19:20.578Z,97569.16
2022-09-02T19:21:51.256Z,97562.84
2022-09-02T19:24:21.386Z,97566.34
2022-09-02T19:26:48.093Z,97572.88
2022-09-02T19:29:15.704Z,97570.69
2022-09-02T19:31:43.479Z,97573.03
2022-09-02T19:34:10.578Z,97575.75
2022-09-02T19:36:40.334Z,97576.00
2022-09-02T19:39:08.161Z,97578.22
2022-09-02T19:41:34.972Z,97579.19
2022-09-02T19:44:01.699Z,97586.38
2022-09-02T19:47:07.013Z,97579.75
2022-09-02T19:49:14.708Z,97588.75
2022-09-02T19:51:42.275Z,97584.34
2022-09-02T19:54:09.818Z,97588.22
2022-09-02T19:56:36.462Z,97586.16
2022-09-02T19:59:03.050Z,97575.69
2022-09-02T20:01:29.617Z,97585.25
2022-09-02T20:03:56.266Z,97591.47
2022-09-02T20:06:22.840Z,97590.81
2022-09-02T20:08:49.372Z,97588.75
2022-09-02T20:11:17.221Z,97596.13
2022-09-02T20:13:44.521Z,97592.38
2022-09-02T20:16:21.871Z,97600.66
2022-09-02T20:18:49.386Z,97611.81
2022-09-02T20:21:39.116Z,97608.69
2022-09-02T20:24:09.462Z,97596.38
2022-09-02T20:26:39.034Z,97596.25
2022-09-02T20:29:15.555Z,97596.56
2022-09-02T20:31:52.478Z,97594.38
2022-09-02T20:34:21.929Z,97583.53
2022-09-02T20:36:48.455Z,97592.34
2022-09-02T20:39:38.235Z,97599.22
2022-09-02T20:42:25.740Z,97601.47
2022-09-02T20:45:14.008Z,97603.25
2022-09-02T20:47:40.450Z,97595.59
2022-09-02T20:50:22.257Z,97589.31
2022-09-02T20:52:54.529Z,97585.81
2022-09-02T20:55:39.164Z,97586.72
2022-09-02T20:58:31.345Z,97596.94
2022-09-02T21:01:08.623Z,97587.50
2022-09-02T21:03:41.186Z,97593.09
2022-09-02T21:06:10.836Z,97581.28
2022-09-02T21:08:57.268Z,97584.66
2022-09-02T21:11:26.992Z,97585.41
2022-09-02T21:13:57.138Z,97587.03
2022-09-02T21:16:26.777Z,97575.56
2022-09-02T21:18:53.238Z,97575.56
2022-09-02T21:21:37.037Z,97568.25
2022-09-02T21:24:23.856Z,97570.97
2022-09-02T21:26:56.760Z,97569.53
2022-09-02T21:29:44.599Z,97566.47
2022-09-02T21:32:11.417Z,97563.75
2022-09-02T21:34:40.786Z,97566.28
2022-09-02T21:37:09.322Z,97565.44
2022-09-02T21:39:39.222Z,97559.50
2022-09-02T21:42:27.451Z,97551.84
2022-09-02T21:45:09.569Z,97550.44
2022-09-02T21:47:48.357Z,97561.28
2022-09-02T21:50:22.213Z,97555.50
2022-09-02T21:53:00.725Z,97548.69
2022-09-02T21:55:27.262Z,97551.56
2022-09-02T21:58:22.827Z,97545.91
2022-09-02T22:00:54.137Z,97549.66
2022-09-02T22:03:40.141Z,97550.91
2022-09-02T22:06:06.691Z,97550.72
2022-09-02T22:08:39.696Z,97552.63
2022-09-02T22:11:16.865Z,97552.44
2022-09-02T22:13:43.446Z,97553.81
2022-09-02T22:16:32.418Z,97548.28
2022-09-02T22:19:02.228Z,97549.72
2022-09-02T22:21:28.801Z,97541.75
2022-09-02T22:23:55.847Z,97543.16
2022-09-02T22:26:41.189Z,97554.38
2022-09-02T22:29:11.481Z,97554.41
2022-09-02T22:31:39.272Z,97556.28
2022-09-02T22:34:06.943Z,97561.22
2022-09-02T22:36:55.262Z,97555.13
2022-09-02T22:39:47.987Z,97557.03
2022-09-02T22:42:20.094Z,97556.41
2022-09-02T22:45:09.462Z,97559.41
2022-09-02T22:47:55.577Z,97551.88
2022-09-02T22:50:45.834Z,97557.03
2022-09-02T22:53:12.891Z,97558.38
2022-09-02T22:55:46.387Z,97558.81
2022-09-02T22:58:32.138Z,97556.16
2022-09-02T23:01:10.872Z,97552.09
2022-09-02T23:03:51.312Z,97557.69
2022-09-02T23:06:26.981Z,97544.16
2022-09-02T23:08:56.686Z,97547.47
2022-09-02T23:11:28.154Z,97542.88
2022-09-02T23:13:55.891Z,97538.19
2022-09-02T23:16:31.891Z,97542.03
2022-09-02T23:19:01.479Z,97549.38
2022-09-02T23:21:40.637Z,97556.25
2022-09-02T23:24:13.315Z,97550.47
2022-09-02T23:26:45.118Z,97557.31
2022-09-02T23:29:15.712Z,97563.84
2022-09-02T23:31:53.037Z,97567.69
2022-09-02T23:34:38.721Z,97565.41
2022-09-02T23:37:21.057Z,97572.00
2022-09-02T23:40:03.067Z,97573.19
2022-09-02T23:42:30.382Z,97563.34
2022-09-02T23:45:00.442Z,97562.63
2022-09-02T23:47:40.543Z,97560.25
2022-09-02T23:50:18.578Z,97565.19
2022-09-02T23:52:58.838Z,97562.78
2022-09-02T23:55:41.658Z,97559.03
2022-09-02T23:58:11.272Z,97548.91
